Deering, MO (63840)

5:49 PM CST on February 06, 2016 (GMT -0600)
APRSWXNET | | Change Station
CLOSE
Current Station
Personal Weather Station
Location: Hayti, MO
Elevation: 269 ft
Nearby Weather Stations
Active Advisory: Flood Advisory

Elev 269 ft 36.23 °N, 89.75 °W | Updated 27 minutes ago

Clear
Clear
51 °F
Feels Like 51 °F
N
2
Wind Variable Wind from WSW
Gusts 5.0 mph

Today
High -- | Low -- °F
--% Chance of Precip.
Yesterday
High -- | Low -- °F
Precip. -- in
Pressure 30.31 in
Visibility 10.0 miles
Clouds Clear
Dew Point 24 °F
Humidity 34%
Rainfall in
Snow Depth Not available.
6:56 AM 5:30 PM
Waning Crescent, 3% visible
METAR KHKA 062253Z AUTO 22005KT 10SM CLR 12/M04 A3030 RMK AO2 SLP263 T01221039
Pressure 30.31 in
Visibility 10.0 miles
Clouds Clear
Dew Point 24 °F
Humidity 34%
Rainfall in
Snow Depth Not available.
6:56 AM 5:30 PM
Waning Crescent, 3% visible
METAR KHKA 062253Z AUTO 22005KT 10SM CLR 12/M04 A3030 RMK AO2 SLP263 T01221039

10-Day Weather Forecast

Almanac

Astronomy

Feb. 06, 2016 Rise Set
Actual Time
Civil Twilight
Nautical Twilight
Astronomical Twilight
Moon
Length of Visible Light
Length of Day
Tomorrow will be .
, % of the Moon is Illuminated

Today's Extremes

State Highs State Lows

Community

WunderPhotos

Upload Photos

1,891,098 photos uploaded!

WunderBlog® & News

Nearby

Air Quality

  Air Quality AQ Index Pollutant
Not available.

Snow Depth

Station Depth Elevation

Earthquake Activity

City Distance Mag. Time & Date
Minimum magnitude displayed is 2.5.

Coastal Water Temperatures

Place Temperature

Stations

Nearby Weather Stations

Station Location Temp. Windchill Dew Point Humidity Wind Precip. Elev Updated Type
                   

Watches & Warnings

Flood Advisory
Issued: 12:31 PM CST Feb. 6, 2016 – National Weather Service

The Flood Advisory continues for
the Mississippi River at Caruthersville
* until Tuesday February 09.
* At 12 PM Saturday the stage was 25.1 feet.
* Flood stage is 32.0 feet.
* Forecast... the river will rise to near 30.7 feet Thursday February
11.
* At 31.0 feet... in Arkansas, Road and field flooding is widespread
at Cottonwood Point. Access roads off Arkansas Road 362 are
flooding. In Tennessee, grain shipping facility south of Heloise is
mostly under water. Dee Webb Road and Watkins Road are flooding,
along with Brady Ridge Road. Barr Road north of wardlow pocket area
is being covered.


Lat... Lon 3623 8977 3623 8948 3606 8950 3595 8948
      3582 8956 3582 8985